sensor_id;sensor_type;location;lat;lon;timestamp;P1;durP1;ratioP1;P2;durP2;ratioP2
8861;SDS011;4799;50.996;4.754;2023-12-04T00:00:37;8.57;;;7.67;;
8861;SDS011;4799;50.996;4.754;2023-12-04T00:03:03;8.70;;;7.80;;
8861;SDS011;4799;50.996;4.754;2023-12-04T00:05:29;8.23;;;7.43;;
8861;SDS011;4799;50.996;4.754;2023-12-04T00:07:54;10.10;;;7.70;;
8861;SDS011;4799;50.996;4.754;2023-12-04T00:10:20;8.47;;;7.60;;
8861;SDS011;4799;50.996;4.754;2023-12-04T00:12:46;9.20;;;8.10;;
8861;SDS011;4799;50.996;4.754;2023-12-04T00:15:12;8.73;;;7.83;;
8861;SDS011;4799;50.996;4.754;2023-12-04T00:17:38;8.53;;;7.50;;
8861;SDS011;4799;50.996;4.754;2023-12-04T00:20:08;8.00;;;7.20;;
8861;SDS011;4799;50.996;4.754;2023-12-04T00:22:35;9.00;;;8.03;;
8861;SDS011;4799;50.996;4.754;2023-12-04T00:25:02;8.40;;;7.50;;
8861;SDS011;4799;50.996;4.754;2023-12-04T00:27:29;7.53;;;6.73;;
8861;SDS011;4799;50.996;4.754;2023-12-04T00:29:54;8.40;;;7.33;;
8861;SDS011;4799;50.996;4.754;2023-12-04T00:32:20;8.20;;;7.13;;
8861;SDS011;4799;50.996;4.754;2023-12-04T00:34:46;7.93;;;7.13;;
8861;SDS011;4799;50.996;4.754;2023-12-04T00:37:12;7.70;;;6.90;;
8861;SDS011;4799;50.996;4.754;2023-12-04T00:39:38;8.27;;;7.20;;
8861;SDS011;4799;50.996;4.754;2023-12-04T00:42:04;8.20;;;7.30;;
8861;SDS011;4799;50.996;4.754;2023-12-04T00:44:30;8.07;;;7.17;;
8861;SDS011;4799;50.996;4.754;2023-12-04T00:46:55;8.43;;;7.30;;
8861;SDS011;4799;50.996;4.754;2023-12-04T00:49:21;8.63;;;7.63;;
8861;SDS011;4799;50.996;4.754;2023-12-04T00:51:47;8.03;;;7.23;;
8861;SDS011;4799;50.996;4.754;2023-12-04T00:54:12;8.33;;;7.53;;
8861;SDS011;4799;50.996;4.754;2023-12-04T00:56:38;8.33;;;7.53;;
8861;SDS011;4799;50.996;4.754;2023-12-04T00:59:05;8.50;;;7.57;;
8861;SDS011;4799;50.996;4.754;2023-12-04T01:01:32;8.70;;;7.73;;
8861;SDS011;4799;50.996;4.754;2023-12-04T01:03:58;8.97;;;7.83;;
8861;SDS011;4799;50.996;4.754;2023-12-04T01:06:24;8.20;;;7.37;;
8861;SDS011;4799;50.996;4.754;2023-12-04T01:08:51;9.50;;;8.37;;
8861;SDS011;4799;50.996;4.754;2023-12-04T01:11:18;8.33;;;7.53;;
8861;SDS011;4799;50.996;4.754;2023-12-04T01:13:46;8.47;;;7.57;;
8861;SDS011;4799;50.996;4.754;2023-12-04T01:16:13;8.43;;;7.50;;
8861;SDS011;4799;50.996;4.754;2023-12-04T01:18:39;9.47;;;8.40;;
8861;SDS011;4799;50.996;4.754;2023-12-04T01:21:06;8.90;;;7.87;;
8861;SDS011;4799;50.996;4.754;2023-12-04T01:23:33;8.63;;;7.73;;
8861;SDS011;4799;50.996;4.754;2023-12-04T01:26:00;8.77;;;7.87;;
8861;SDS011;4799;50.996;4.754;2023-12-04T01:28:26;9.23;;;8.20;;
8861;SDS011;4799;50.996;4.754;2023-12-04T01:30:52;8.90;;;7.93;;
8861;SDS011;4799;50.996;4.754;2023-12-04T01:33:17;9.07;;;8.10;;
8861;SDS011;4799;50.996;4.754;2023-12-04T01:35:43;8.93;;;7.97;;
8861;SDS011;4799;50.996;4.754;2023-12-04T01:38:09;8.83;;;7.90;;
8861;SDS011;4799;50.996;4.754;2023-12-04T01:40:35;8.97;;;8.07;;
8861;SDS011;4799;50.996;4.754;2023-12-04T01:43:01;8.20;;;7.40;;
8861;SDS011;4799;50.996;4.754;2023-12-04T01:45:27;8.50;;;7.60;;
8861;SDS011;4799;50.996;4.754;2023-12-04T01:47:53;8.40;;;7.60;;
8861;SDS011;4799;50.996;4.754;2023-12-04T01:50:18;8.87;;;7.97;;
8861;SDS011;4799;50.996;4.754;2023-12-04T01:52:45;9.00;;;8.10;;
8861;SDS011;4799;50.996;4.754;2023-12-04T01:55:12;7.87;;;7.07;;
8861;SDS011;4799;50.996;4.754;2023-12-04T01:57:38;8.57;;;7.67;;
8861;SDS011;4799;50.996;4.754;2023-12-04T02:00:04;8.37;;;7.47;;
8861;SDS011;4799;50.996;4.754;2023-12-04T02:02:36;8.73;;;7.67;;
8861;SDS011;4799;50.996;4.754;2023-12-04T02:05:07;8.23;;;7.37;;
8861;SDS011;4799;50.996;4.754;2023-12-04T02:07:33;9.47;;;7.73;;
8861;SDS011;4799;50.996;4.754;2023-12-04T02:10:00;8.60;;;7.70;;
8861;SDS011;4799;50.996;4.754;2023-12-04T02:12:26;8.73;;;7.63;;
8861;SDS011;4799;50.996;4.754;2023-12-04T02:14:52;9.07;;;8.13;;
8861;SDS011;4799;50.996;4.754;2023-12-04T02:17:18;7.90;;;7.10;;
8861;SDS011;4799;50.996;4.754;2023-12-04T02:19:44;9.13;;;8.17;;
8861;SDS011;4799;50.996;4.754;2023-12-04T02:22:10;8.87;;;7.73;;
8861;SDS011;4799;50.996;4.754;2023-12-04T02:24:36;8.10;;;7.30;;
8861;SDS011;4799;50.996;4.754;2023-12-04T02:27:23;9.03;;;8.10;;
8861;SDS011;4799;50.996;4.754;2023-12-04T02:29:56;8.33;;;7.53;;
8861;SDS011;4799;50.996;4.754;2023-12-04T02:32:24;8.23;;;7.43;;
8861;SDS011;4799;50.996;4.754;2023-12-04T02:34:54;8.50;;;7.60;;
8861;SDS011;4799;50.996;4.754;2023-12-04T02:37:21;8.43;;;7.57;;
8861;SDS011;4799;50.996;4.754;2023-12-04T02:39:48;8.07;;;7.27;;
8861;SDS011;4799;50.996;4.754;2023-12-04T02:42:17;8.33;;;7.53;;
8861;SDS011;4799;50.996;4.754;2023-12-04T02:44:44;7.87;;;7.07;;
8861;SDS011;4799;50.996;4.754;2023-12-04T02:47:10;7.97;;;7.17;;
8861;SDS011;4799;50.996;4.754;2023-12-04T02:49:36;8.07;;;7.27;;
8861;SDS011;4799;50.996;4.754;2023-12-04T02:52:02;8.60;;;7.33;;
8861;SDS011;4799;50.996;4.754;2023-12-04T02:54:28;7.77;;;7.07;;
8861;SDS011;4799;50.996;4.754;2023-12-04T02:56:54;8.50;;;7.63;;
8861;SDS011;4799;50.996;4.754;2023-12-04T02:59:20;7.97;;;7.17;;
8861;SDS011;4799;50.996;4.754;2023-12-04T03:01:45;8.47;;;7.63;;
8861;SDS011;4799;50.996;4.754;2023-12-04T03:04:11;8.43;;;7.53;;
8861;SDS011;4799;50.996;4.754;2023-12-04T03:06:37;8.70;;;7.67;;
8861;SDS011;4799;50.996;4.754;2023-12-04T03:09:03;8.00;;;7.20;;
8861;SDS011;4799;50.996;4.754;2023-12-04T03:11:30;7.97;;;7.13;;
8861;SDS011;4799;50.996;4.754;2023-12-04T03:13:56;8.13;;;7.33;;
8861;SDS011;4799;50.996;4.754;2023-12-04T03:16:22;8.20;;;7.40;;
8861;SDS011;4799;50.996;4.754;2023-12-04T03:18:47;8.37;;;7.50;;
8861;SDS011;4799;50.996;4.754;2023-12-04T03:21:13;8.23;;;7.43;;
8861;SDS011;4799;50.996;4.754;2023-12-04T03:23:39;8.10;;;7.30;;
8861;SDS011;4799;50.996;4.754;2023-12-04T03:26:04;8.13;;;7.13;;
8861;SDS011;4799;50.996;4.754;2023-12-04T03:28:30;8.37;;;7.57;;
8861;SDS011;4799;50.996;4.754;2023-12-04T03:30:56;7.47;;;6.77;;
8861;SDS011;4799;50.996;4.754;2023-12-04T03:33:22;7.97;;;7.17;;
8861;SDS011;4799;50.996;4.754;2023-12-04T03:35:47;7.37;;;6.57;;
8861;SDS011;4799;50.996;4.754;2023-12-04T03:38:13;7.33;;;6.53;;
8861;SDS011;4799;50.996;4.754;2023-12-04T03:40:39;7.97;;;7.17;;
8861;SDS011;4799;50.996;4.754;2023-12-04T03:43:04;7.80;;;7.10;;
8861;SDS011;4799;50.996;4.754;2023-12-04T03:45:30;7.97;;;7.17;;
8861;SDS011;4799;50.996;4.754;2023-12-04T03:47:56;7.93;;;7.10;;
8861;SDS011;4799;50.996;4.754;2023-12-04T03:50:22;7.80;;;7.00;;
8861;SDS011;4799;50.996;4.754;2023-12-04T03:52:48;8.17;;;7.37;;
8861;SDS011;4799;50.996;4.754;2023-12-04T03:55:13;8.30;;;7.40;;
8861;SDS011;4799;50.996;4.754;2023-12-04T03:57:39;8.57;;;7.60;;
8861;SDS011;4799;50.996;4.754;2023-12-04T04:00:05;7.93;;;7.07;;
8861;SDS011;4799;50.996;4.754;2023-12-04T04:02:31;8.90;;;8.00;;
8861;SDS011;4799;50.996;4.754;2023-12-04T04:04:57;9.47;;;7.90;;
8861;SDS011;4799;50.996;4.754;2023-12-04T04:07:22;8.70;;;7.80;;
8861;SDS011;4799;50.996;4.754;2023-12-04T04:09:48;8.70;;;7.77;;
8861;SDS011;4799;50.996;4.754;2023-12-04T04:12:14;9.03;;;8.13;;
8861;SDS011;4799;50.996;4.754;2023-12-04T04:14:39;9.37;;;8.40;;
8861;SDS011;4799;50.996;4.754;2023-12-04T04:17:05;8.70;;;7.80;;
8861;SDS011;4799;50.996;4.754;2023-12-04T04:19:31;9.30;;;8.27;;
8861;SDS011;4799;50.996;4.754;2023-12-04T04:21:56;9.00;;;8.10;;
8861;SDS011;4799;50.996;4.754;2023-12-04T04:24:22;8.97;;;8.07;;
8861;SDS011;4799;50.996;4.754;2023-12-04T04:26:48;9.93;;;8.80;;
8861;SDS011;4799;50.996;4.754;2023-12-04T04:29:13;9.03;;;8.13;;
8861;SDS011;4799;50.996;4.754;2023-12-04T04:31:39;8.67;;;7.67;;
8861;SDS011;4799;50.996;4.754;2023-12-04T04:34:05;8.90;;;8.00;;
8861;SDS011;4799;50.996;4.754;2023-12-04T04:36:30;9.23;;;8.10;;
8861;SDS011;4799;50.996;4.754;2023-12-04T04:38:56;9.57;;;8.30;;
8861;SDS011;4799;50.996;4.754;2023-12-04T04:41:22;9.07;;;8.17;;
8861;SDS011;4799;50.996;4.754;2023-12-04T04:43:48;8.80;;;7.90;;
8861;SDS011;4799;50.996;4.754;2023-12-04T04:46:14;9.10;;;8.20;;
8861;SDS011;4799;50.996;4.754;2023-12-04T04:48:40;9.47;;;8.47;;
8861;SDS011;4799;50.996;4.754;2023-12-04T04:51:06;8.60;;;7.60;;
8861;SDS011;4799;50.996;4.754;2023-12-04T04:53:32;10.53;;;8.03;;
8861;SDS011;4799;50.996;4.754;2023-12-04T04:55:57;8.60;;;7.70;;
8861;SDS011;4799;50.996;4.754;2023-12-04T04:58:23;8.70;;;7.80;;
8861;SDS011;4799;50.996;4.754;2023-12-04T05:00:49;8.20;;;7.40;;
8861;SDS011;4799;50.996;4.754;2023-12-04T05:03:14;8.30;;;7.50;;
8861;SDS011;4799;50.996;4.754;2023-12-04T05:05:40;8.73;;;7.83;;
8861;SDS011;4799;50.996;4.754;2023-12-04T05:08:06;8.17;;;7.33;;
8861;SDS011;4799;50.996;4.754;2023-12-04T05:10:32;8.63;;;7.70;;
8861;SDS011;4799;50.996;4.754;2023-12-04T05:12:58;7.73;;;6.97;;
8861;SDS011;4799;50.996;4.754;2023-12-04T05:15:23;8.23;;;6.73;;
8861;SDS011;4799;50.996;4.754;2023-12-04T05:17:50;8.60;;;7.70;;
8861;SDS011;4799;50.996;4.754;2023-12-04T05:20:16;7.93;;;7.03;;
8861;SDS011;4799;50.996;4.754;2023-12-04T05:22:42;8.43;;;7.53;;
8861;SDS011;4799;50.996;4.754;2023-12-04T05:25:08;7.10;;;6.50;;
8861;SDS011;4799;50.996;4.754;2023-12-04T05:27:33;7.70;;;6.90;;
8861;SDS011;4799;50.996;4.754;2023-12-04T05:29:59;8.00;;;7.20;;
8861;SDS011;4799;50.996;4.754;2023-12-04T05:32:25;7.13;;;6.43;;
8861;SDS011;4799;50.996;4.754;2023-12-04T05:34:50;7.83;;;7.03;;
8861;SDS011;4799;50.996;4.754;2023-12-04T05:37:16;7.43;;;6.63;;
8861;SDS011;4799;50.996;4.754;2023-12-04T05:39:42;7.77;;;6.97;;
8861;SDS011;4799;50.996;4.754;2023-12-04T05:42:08;7.50;;;6.80;;
8861;SDS011;4799;50.996;4.754;2023-12-04T05:44:33;7.47;;;6.77;;
8861;SDS011;4799;50.996;4.754;2023-12-04T05:47:00;7.23;;;6.53;;
8861;SDS011;4799;50.996;4.754;2023-12-04T05:49:26;7.57;;;6.70;;
8861;SDS011;4799;50.996;4.754;2023-12-04T05:51:51;7.27;;;6.57;;
8861;SDS011;4799;50.996;4.754;2023-12-04T05:54:17;7.60;;;6.87;;
8861;SDS011;4799;50.996;4.754;2023-12-04T05:56:43;7.17;;;6.47;;
8861;SDS011;4799;50.996;4.754;2023-12-04T05:59:08;6.87;;;6.17;;
8861;SDS011;4799;50.996;4.754;2023-12-04T06:01:34;7.20;;;6.50;;
8861;SDS011;4799;50.996;4.754;2023-12-04T06:04:00;6.83;;;6.13;;
8861;SDS011;4799;50.996;4.754;2023-12-04T06:06:26;7.00;;;6.30;;
8861;SDS011;4799;50.996;4.754;2023-12-04T06:08:52;6.27;;;5.67;;
8861;SDS011;4799;50.996;4.754;2023-12-04T06:11:18;6.80;;;6.10;;
8861;SDS011;4799;50.996;4.754;2023-12-04T06:13:43;6.83;;;6.17;;
8861;SDS011;4799;50.996;4.754;2023-12-04T06:16:09;6.33;;;5.73;;
8861;SDS011;4799;50.996;4.754;2023-12-04T06:18:35;6.53;;;5.90;;
8861;SDS011;4799;50.996;4.754;2023-12-04T06:21:01;6.33;;;5.73;;
8861;SDS011;4799;50.996;4.754;2023-12-04T06:23:27;6.53;;;5.93;;
8861;SDS011;4799;50.996;4.754;2023-12-04T06:25:53;6.50;;;5.90;;
8861;SDS011;4799;50.996;4.754;2023-12-04T06:28:19;6.70;;;6.10;;
8861;SDS011;4799;50.996;4.754;2023-12-04T06:30:44;6.40;;;5.77;;
8861;SDS011;4799;50.996;4.754;2023-12-04T06:33:10;6.43;;;5.73;;
8861;SDS011;4799;50.996;4.754;2023-12-04T06:35:38;6.60;;;6.00;;
8861;SDS011;4799;50.996;4.754;2023-12-04T06:38:06;6.60;;;5.97;;
8861;SDS011;4799;50.996;4.754;2023-12-04T06:40:32;5.87;;;5.37;;
8861;SDS011;4799;50.996;4.754;2023-12-04T06:42:59;6.33;;;5.73;;
8861;SDS011;4799;50.996;4.754;2023-12-04T06:45:25;5.50;;;5.00;;
8861;SDS011;4799;50.996;4.754;2023-12-04T06:47:52;5.83;;;5.33;;
8861;SDS011;4799;50.996;4.754;2023-12-04T06:50:19;5.80;;;5.30;;
8861;SDS011;4799;50.996;4.754;2023-12-04T06:52:45;5.60;;;5.10;;
8861;SDS011;4799;50.996;4.754;2023-12-04T06:55:11;5.57;;;5.07;;
8861;SDS011;4799;50.996;4.754;2023-12-04T06:57:38;5.77;;;5.27;;
8861;SDS011;4799;50.996;4.754;2023-12-04T07:00:03;5.40;;;4.90;;
8861;SDS011;4799;50.996;4.754;2023-12-04T07:02:31;6.00;;;5.40;;
8861;SDS011;4799;50.996;4.754;2023-12-04T07:04:57;5.70;;;5.20;;
8861;SDS011;4799;50.996;4.754;2023-12-04T07:07:23;5.70;;;5.10;;
8861;SDS011;4799;50.996;4.754;2023-12-04T07:09:48;5.60;;;5.10;;
8861;SDS011;4799;50.996;4.754;2023-12-04T07:12:14;5.63;;;5.13;;
8861;SDS011;4799;50.996;4.754;2023-12-04T07:14:40;5.63;;;5.13;;
8861;SDS011;4799;50.996;4.754;2023-12-04T07:17:07;6.00;;;5.40;;
8861;SDS011;4799;50.996;4.754;2023-12-04T07:19:32;5.70;;;5.10;;
8861;SDS011;4799;50.996;4.754;2023-12-04T07:21:58;5.23;;;4.73;;
8861;SDS011;4799;50.996;4.754;2023-12-04T07:24:24;5.90;;;5.40;;
8861;SDS011;4799;50.996;4.754;2023-12-04T07:26:51;5.43;;;4.93;;
8861;SDS011;4799;50.996;4.754;2023-12-04T07:29:17;5.77;;;5.13;;
8861;SDS011;4799;50.996;4.754;2023-12-04T07:31:44;5.80;;;5.20;;
8861;SDS011;4799;50.996;4.754;2023-12-04T07:34:09;5.53;;;5.03;;
8861;SDS011;4799;50.996;4.754;2023-12-04T07:36:35;6.87;;;5.57;;
8861;SDS011;4799;50.996;4.754;2023-12-04T07:39:01;5.23;;;4.73;;
8861;SDS011;4799;50.996;4.754;2023-12-04T07:41:26;6.00;;;5.50;;
8861;SDS011;4799;50.996;4.754;2023-12-04T07:43:52;6.33;;;5.73;;
8861;SDS011;4799;50.996;4.754;2023-12-04T07:46:19;5.90;;;5.30;;
8861;SDS011;4799;50.996;4.754;2023-12-04T07:48:45;6.47;;;5.47;;
8861;SDS011;4799;50.996;4.754;2023-12-04T07:51:11;6.00;;;5.40;;
8861;SDS011;4799;50.996;4.754;2023-12-04T07:53:37;6.03;;;5.53;;
8861;SDS011;4799;50.996;4.754;2023-12-04T07:56:02;7.13;;;6.10;;
8861;SDS011;4799;50.996;4.754;2023-12-04T07:58:29;6.17;;;5.57;;
8861;SDS011;4799;50.996;4.754;2023-12-04T08:00:56;5.30;;;4.80;;
8861;SDS011;4799;50.996;4.754;2023-12-04T08:03:22;5.70;;;5.20;;
8861;SDS011;4799;50.996;4.754;2023-12-04T08:05:51;6.60;;;6.00;;
8861;SDS011;4799;50.996;4.754;2023-12-04T08:08:17;6.47;;;5.37;;
8861;SDS011;4799;50.996;4.754;2023-12-04T08:10:42;6.20;;;5.60;;
8861;SDS011;4799;50.996;4.754;2023-12-04T08:13:08;5.67;;;5.17;;
8861;SDS011;4799;50.996;4.754;2023-12-04T08:15:34;6.50;;;5.77;;
8861;SDS011;4799;50.996;4.754;2023-12-04T08:17:59;6.20;;;5.60;;
8861;SDS011;4799;50.996;4.754;2023-12-04T08:20:25;5.90;;;5.30;;
8861;SDS011;4799;50.996;4.754;2023-12-04T08:22:51;6.13;;;5.23;;
8861;SDS011;4799;50.996;4.754;2023-12-04T08:25:17;5.77;;;5.17;;
8861;SDS011;4799;50.996;4.754;2023-12-04T08:27:43;5.63;;;5.03;;
8861;SDS011;4799;50.996;4.754;2023-12-04T08:30:09;6.20;;;5.60;;
8861;SDS011;4799;50.996;4.754;2023-12-04T08:32:35;5.07;;;4.63;;
8861;SDS011;4799;50.996;4.754;2023-12-04T08:35:00;5.43;;;4.93;;
8861;SDS011;4799;50.996;4.754;2023-12-04T08:37:26;5.13;;;4.63;;
8861;SDS011;4799;50.996;4.754;2023-12-04T08:39:52;6.00;;;5.40;;
8861;SDS011;4799;50.996;4.754;2023-12-04T08:42:18;5.87;;;5.17;;
8861;SDS011;4799;50.996;4.754;2023-12-04T08:44:44;5.37;;;4.87;;
8861;SDS011;4799;50.996;4.754;2023-12-04T08:47:12;5.40;;;4.90;;
8861;SDS011;4799;50.996;4.754;2023-12-04T08:49:39;6.00;;;5.40;;
8861;SDS011;4799;50.996;4.754;2023-12-04T08:52:06;5.40;;;4.90;;
8861;SDS011;4799;50.996;4.754;2023-12-04T08:54:32;6.40;;;5.20;;
8861;SDS011;4799;50.996;4.754;2023-12-04T08:56:58;5.60;;;5.10;;
8861;SDS011;4799;50.996;4.754;2023-12-04T08:59:23;5.47;;;4.97;;
8861;SDS011;4799;50.996;4.754;2023-12-04T09:01:49;5.40;;;4.90;;
8861;SDS011;4799;50.996;4.754;2023-12-04T09:04:15;5.60;;;5.10;;
8861;SDS011;4799;50.996;4.754;2023-12-04T09:06:40;5.47;;;4.97;;
8861;SDS011;4799;50.996;4.754;2023-12-04T09:09:06;6.03;;;5.43;;
8861;SDS011;4799;50.996;4.754;2023-12-04T09:11:32;5.60;;;5.10;;
8861;SDS011;4799;50.996;4.754;2023-12-04T09:13:58;6.03;;;5.07;;
8861;SDS011;4799;50.996;4.754;2023-12-04T09:16:24;7.17;;;5.43;;
8861;SDS011;4799;50.996;4.754;2023-12-04T09:18:50;5.50;;;5.00;;
8861;SDS011;4799;50.996;4.754;2023-12-04T09:21:15;5.90;;;5.30;;
8861;SDS011;4799;50.996;4.754;2023-12-04T09:23:41;6.10;;;5.50;;
8861;SDS011;4799;50.996;4.754;2023-12-04T09:26:07;5.77;;;5.17;;
8861;SDS011;4799;50.996;4.754;2023-12-04T09:28:33;6.80;;;6.17;;
8861;SDS011;4799;50.996;4.754;2023-12-04T09:31:01;6.00;;;5.40;;
8861;SDS011;4799;50.996;4.754;2023-12-04T09:33:27;6.80;;;5.57;;
8861;SDS011;4799;50.996;4.754;2023-12-04T09:35:53;6.47;;;5.87;;
8861;SDS011;4799;50.996;4.754;2023-12-04T09:38:19;7.00;;;5.90;;
8861;SDS011;4799;50.996;4.754;2023-12-04T09:40:44;6.77;;;5.97;;
8861;SDS011;4799;50.996;4.754;2023-12-04T09:43:10;6.50;;;5.90;;
8861;SDS011;4799;50.996;4.754;2023-12-04T09:45:38;6.63;;;5.93;;
8861;SDS011;4799;50.996;4.754;2023-12-04T09:48:05;6.63;;;6.03;;
8861;SDS011;4799;50.996;4.754;2023-12-04T09:50:31;6.60;;;5.90;;
8861;SDS011;4799;50.996;4.754;2023-12-04T09:52:57;6.33;;;5.73;;
8861;SDS011;4799;50.996;4.754;2023-12-04T09:55:25;6.23;;;5.63;;
8861;SDS011;4799;50.996;4.754;2023-12-04T09:57:51;6.37;;;5.50;;
8861;SDS011;4799;50.996;4.754;2023-12-04T10:00:17;6.60;;;6.00;;
8861;SDS011;4799;50.996;4.754;2023-12-04T10:02:45;6.33;;;5.73;;
8861;SDS011;4799;50.996;4.754;2023-12-04T10:05:12;6.53;;;5.93;;
8861;SDS011;4799;50.996;4.754;2023-12-04T10:07:38;7.23;;;6.53;;
8861;SDS011;4799;50.996;4.754;2023-12-04T10:10:04;7.00;;;6.30;;
8861;SDS011;4799;50.996;4.754;2023-12-04T10:12:31;7.27;;;6.43;;
8861;SDS011;4799;50.996;4.754;2023-12-04T10:15:06;7.10;;;6.40;;
8861;SDS011;4799;50.996;4.754;2023-12-04T10:17:36;7.17;;;6.57;;
8861;SDS011;4799;50.996;4.754;2023-12-04T10:20:08;7.70;;;7.00;;
8861;SDS011;4799;50.996;4.754;2023-12-04T10:22:51;7.67;;;6.97;;
8861;SDS011;4799;50.996;4.754;2023-12-04T10:25:22;8.00;;;7.20;;
8861;SDS011;4799;50.996;4.754;2023-12-04T10:27:50;7.67;;;6.63;;
8861;SDS011;4799;50.996;4.754;2023-12-04T10:30:28;7.90;;;7.17;;
8861;SDS011;4799;50.996;4.754;2023-12-04T10:33:03;7.57;;;6.80;;
8861;SDS011;4799;50.996;4.754;2023-12-04T10:35:30;7.23;;;6.53;;
8861;SDS011;4799;50.996;4.754;2023-12-04T10:37:57;8.57;;;7.23;;
8861;SDS011;4799;50.996;4.754;2023-12-04T10:40:25;7.77;;;7.07;;
8861;SDS011;4799;50.996;4.754;2023-12-04T10:42:57;8.17;;;7.37;;
8861;SDS011;4799;50.996;4.754;2023-12-04T10:45:45;8.13;;;7.33;;
8861;SDS011;4799;50.996;4.754;2023-12-04T10:48:13;8.27;;;7.47;;
8861;SDS011;4799;50.996;4.754;2023-12-04T10:50:41;10.87;;;7.93;;
8861;SDS011;4799;50.996;4.754;2023-12-04T10:53:09;7.63;;;6.93;;
8861;SDS011;4799;50.996;4.754;2023-12-04T10:55:38;8.20;;;7.47;;
8861;SDS011;4799;50.996;4.754;2023-12-04T10:58:06;8.73;;;7.67;;
8861;SDS011;4799;50.996;4.754;2023-12-04T11:00:48;8.40;;;7.57;;
8861;SDS011;4799;50.996;4.754;2023-12-04T11:03:26;8.20;;;7.50;;
8861;SDS011;4799;50.996;4.754;2023-12-04T11:06:01;8.23;;;7.43;;
8861;SDS011;4799;50.996;4.754;2023-12-04T11:08:29;8.50;;;7.70;;
8861;SDS011;4799;50.996;4.754;2023-12-04T11:10:59;7.90;;;7.10;;
8861;SDS011;4799;50.996;4.754;2023-12-04T11:13:34;7.77;;;7.07;;
8861;SDS011;4799;50.996;4.754;2023-12-04T11:16:02;8.20;;;7.40;;
8861;SDS011;4799;50.996;4.754;2023-12-04T11:18:43;8.20;;;7.40;;
8861;SDS011;4799;50.996;4.754;2023-12-04T11:21:13;7.53;;;6.83;;
8861;SDS011;4799;50.996;4.754;2023-12-04T11:23:40;7.83;;;7.03;;
8861;SDS011;4799;50.996;4.754;2023-12-04T11:26:08;7.77;;;7.03;;
8861;SDS011;4799;50.996;4.754;2023-12-04T11:28:35;7.80;;;7.10;;
8861;SDS011;4799;50.996;4.754;2023-12-04T11:31:03;8.20;;;7.30;;
8861;SDS011;4799;50.996;4.754;2023-12-04T11:33:34;8.10;;;7.37;;
8861;SDS011;4799;50.996;4.754;2023-12-04T11:36:10;8.00;;;7.20;;
8861;SDS011;4799;50.996;4.754;2023-12-04T11:38:37;8.20;;;7.40;;
8861;SDS011;4799;50.996;4.754;2023-12-04T11:41:17;8.53;;;7.40;;
8861;SDS011;4799;50.996;4.754;2023-12-04T11:43:45;7.77;;;7.07;;
8861;SDS011;4799;50.996;4.754;2023-12-04T11:46:24;8.73;;;7.83;;
8861;SDS011;4799;50.996;4.754;2023-12-04T11:48:53;7.80;;;7.10;;
8861;SDS011;4799;50.996;4.754;2023-12-04T11:54:04;8.03;;;7.23;;
8861;SDS011;4799;50.996;4.754;2023-12-04T11:56:32;8.47;;;7.67;;
8861;SDS011;4799;50.996;4.754;2023-12-04T11:59:07;8.23;;;7.43;;
8861;SDS011;4799;50.996;4.754;2023-12-04T12:01:33;8.60;;;7.77;;
8861;SDS011;4799;50.996;4.754;2023-12-04T12:04:05;7.90;;;7.20;;
8861;SDS011;4799;50.996;4.754;2023-12-04T12:06:31;8.63;;;7.77;;
8861;SDS011;4799;50.996;4.754;2023-12-04T12:08:57;8.87;;;7.97;;
8861;SDS011;4799;50.996;4.754;2023-12-04T12:11:23;8.43;;;7.63;;
8861;SDS011;4799;50.996;4.754;2023-12-04T12:13:52;8.47;;;7.67;;
8861;SDS011;4799;50.996;4.754;2023-12-04T12:16:18;8.23;;;7.43;;
8861;SDS011;4799;50.996;4.754;2023-12-04T12:18:44;8.33;;;7.53;;
8861;SDS011;4799;50.996;4.754;2023-12-04T12:21:10;7.97;;;7.27;;
8861;SDS011;4799;50.996;4.754;2023-12-04T12:23:36;7.93;;;7.23;;
8861;SDS011;4799;50.996;4.754;2023-12-04T12:26:01;8.37;;;7.57;;
8861;SDS011;4799;50.996;4.754;2023-12-04T12:28:30;8.13;;;7.33;;
8861;SDS011;4799;50.996;4.754;2023-12-04T12:30:56;8.03;;;7.27;;
8861;SDS011;4799;50.996;4.754;2023-12-04T12:33:26;8.63;;;7.37;;
8861;SDS011;4799;50.996;4.754;2023-12-04T12:35:52;8.57;;;7.10;;
8861;SDS011;4799;50.996;4.754;2023-12-04T12:38:17;8.97;;;7.00;;
8861;SDS011;4799;50.996;4.754;2023-12-04T12:40:44;10.10;;;7.00;;
8861;SDS011;4799;50.996;4.754;2023-12-04T12:43:09;7.87;;;7.10;;
8861;SDS011;4799;50.996;4.754;2023-12-04T12:45:39;7.57;;;6.87;;
8861;SDS011;4799;50.996;4.754;2023-12-04T12:48:15;8.63;;;7.83;;
8861;SDS011;4799;50.996;4.754;2023-12-04T12:50:44;8.10;;;7.30;;
8861;SDS011;4799;50.996;4.754;2023-12-04T12:53:13;7.87;;;6.93;;
8861;SDS011;4799;50.996;4.754;2023-12-04T12:55:42;8.20;;;7.50;;
8861;SDS011;4799;50.996;4.754;2023-12-04T12:58:11;8.10;;;7.40;;
8861;SDS011;4799;50.996;4.754;2023-12-04T13:00:41;8.90;;;7.90;;
8861;SDS011;4799;50.996;4.754;2023-12-04T13:03:14;8.00;;;7.20;;
8861;SDS011;4799;50.996;4.754;2023-12-04T13:05:41;9.27;;;6.93;;
8861;SDS011;4799;50.996;4.754;2023-12-04T13:08:07;8.23;;;7.43;;
8861;SDS011;4799;50.996;4.754;2023-12-04T13:10:32;8.17;;;7.37;;
8861;SDS011;4799;50.996;4.754;2023-12-04T13:12:58;8.33;;;7.53;;
8861;SDS011;4799;50.996;4.754;2023-12-04T13:15:25;9.03;;;8.13;;
8861;SDS011;4799;50.996;4.754;2023-12-04T13:17:51;8.73;;;7.93;;
8861;SDS011;4799;50.996;4.754;2023-12-04T13:20:17;8.63;;;7.83;;
8861;SDS011;4799;50.996;4.754;2023-12-04T13:22:43;8.73;;;7.73;;
8861;SDS011;4799;50.996;4.754;2023-12-04T13:25:08;8.90;;;8.00;;
8861;SDS011;4799;50.996;4.754;2023-12-04T13:27:36;9.33;;;8.43;;
8861;SDS011;4799;50.996;4.754;2023-12-04T13:30:07;9.50;;;8.60;;
8861;SDS011;4799;50.996;4.754;2023-12-04T13:32:39;9.30;;;8.40;;
8861;SDS011;4799;50.996;4.754;2023-12-04T13:35:05;9.00;;;8.20;;
8861;SDS011;4799;50.996;4.754;2023-12-04T13:37:36;8.17;;;7.37;;
8861;SDS011;4799;50.996;4.754;2023-12-04T13:40:03;9.70;;;8.80;;
8861;SDS011;4799;50.996;4.754;2023-12-04T13:42:34;9.80;;;8.90;;
8861;SDS011;4799;50.996;4.754;2023-12-04T13:45:19;9.93;;;9.03;;
8861;SDS011;4799;50.996;4.754;2023-12-04T13:47:48;9.87;;;8.97;;
8861;SDS011;4799;50.996;4.754;2023-12-04T13:50:15;10.10;;;9.10;;
8861;SDS011;4799;50.996;4.754;2023-12-04T13:52:41;10.23;;;9.23;;
8861;SDS011;4799;50.996;4.754;2023-12-04T13:55:10;10.63;;;9.60;;
8861;SDS011;4799;50.996;4.754;2023-12-04T13:57:44;10.73;;;9.73;;
8861;SDS011;4799;50.996;4.754;2023-12-04T14:00:34;10.50;;;9.60;;
8861;SDS011;4799;50.996;4.754;2023-12-04T14:03:01;10.30;;;9.30;;
8861;SDS011;4799;50.996;4.754;2023-12-04T14:05:30;11.40;;;10.27;;
8861;SDS011;4799;50.996;4.754;2023-12-04T14:07:56;10.43;;;9.43;;
8861;SDS011;4799;50.996;4.754;2023-12-04T14:10:24;11.07;;;9.97;;
8861;SDS011;4799;50.996;4.754;2023-12-04T14:12:53;10.27;;;9.37;;
8861;SDS011;4799;50.996;4.754;2023-12-04T14:15:19;10.67;;;9.60;;
8861;SDS011;4799;50.996;4.754;2023-12-04T14:17:45;11.17;;;10.10;;
8861;SDS011;4799;50.996;4.754;2023-12-04T14:20:14;10.93;;;9.90;;
8861;SDS011;4799;50.996;4.754;2023-12-04T14:22:42;11.13;;;10.13;;
8861;SDS011;4799;50.996;4.754;2023-12-04T14:25:10;11.37;;;10.17;;
8861;SDS011;4799;50.996;4.754;2023-12-04T14:27:35;10.13;;;9.13;;
8861;SDS011;4799;50.996;4.754;2023-12-04T14:30:05;11.00;;;9.93;;
8861;SDS011;4799;50.996;4.754;2023-12-04T14:32:34;10.73;;;9.73;;
8861;SDS011;4799;50.996;4.754;2023-12-04T14:35:01;10.70;;;9.70;;
8861;SDS011;4799;50.996;4.754;2023-12-04T14:37:28;11.40;;;10.30;;
8861;SDS011;4799;50.996;4.754;2023-12-04T14:39:53;11.80;;;10.70;;
8861;SDS011;4799;50.996;4.754;2023-12-04T14:42:19;10.27;;;9.40;;
8861;SDS011;4799;50.996;4.754;2023-12-04T14:44:45;10.57;;;9.67;;
8861;SDS011;4799;50.996;4.754;2023-12-04T14:47:10;10.77;;;9.77;;
8861;SDS011;4799;50.996;4.754;2023-12-04T14:49:37;10.63;;;9.57;;
8861;SDS011;4799;50.996;4.754;2023-12-04T14:52:03;11.70;;;10.60;;
8861;SDS011;4799;50.996;4.754;2023-12-04T14:54:31;11.00;;;9.90;;
8861;SDS011;4799;50.996;4.754;2023-12-04T14:57:20;10.57;;;9.63;;
8861;SDS011;4799;50.996;4.754;2023-12-04T15:00:05;11.57;;;10.47;;
8861;SDS011;4799;50.996;4.754;2023-12-04T15:02:35;11.43;;;10.43;;
8861;SDS011;4799;50.996;4.754;2023-12-04T15:05:10;10.93;;;9.93;;
8861;SDS011;4799;50.996;4.754;2023-12-04T15:07:54;10.97;;;9.93;;
8861;SDS011;4799;50.996;4.754;2023-12-04T15:10:20;11.03;;;10.03;;
8861;SDS011;4799;50.996;4.754;2023-12-04T15:12:51;12.27;;;11.10;;
8861;SDS011;4799;50.996;4.754;2023-12-04T15:15:25;11.93;;;10.90;;